createdAt,value
2022-09-30T00:10:17.644Z,99787.73
2022-09-30T00:25:20.812Z,99794.42
2022-09-30T00:40:23.904Z,99804.11
2022-09-30T00:55:35.010Z,99823.15
2022-09-30T01:10:38.398Z,99832.17
2022-09-30T01:26:13.001Z,99823.98
2022-09-30T01:41:29.907Z,99818.38
2022-09-30T01:56:36.454Z,99809.27
2022-09-30T02:11:42.791Z,99828.72
2022-09-30T02:26:49.571Z,99836.11
2022-09-30T02:41:58.917Z,99855.92
2022-09-30T02:57:20.506Z,99854.69
2022-09-30T03:12:48.458Z,99866.04
2022-09-30T03:28:00.452Z,99888.52
2022-09-30T03:43:31.742Z,99895.42
2022-09-30T03:58:35.545Z,99912.86
2022-09-30T04:13:39.576Z,99915.35
2022-09-30T04:28:43.910Z,99927.98
2022-09-30T04:43:48.699Z,99937.95
2022-09-30T04:58:53.720Z,99941.61
2022-09-30T05:13:57.087Z,99951.48
2022-09-30T05:29:00.229Z,99978.80
2022-09-30T05:44:03.627Z,99984.30
2022-09-30T05:59:07.934Z,100002.45
2022-09-30T06:14:11.150Z,100016.48
2022-09-30T06:29:14.707Z,100026.58
2022-09-30T06:44:18.391Z,100039.45
2022-09-30T06:59:21.958Z,100046.64
2022-09-30T07:14:25.264Z,100056.59
2022-09-30T07:29:36.576Z,100084.72
2022-09-30T07:44:49.267Z,100100.76
2022-09-30T07:59:52.378Z,100122.02
2022-09-30T08:14:55.417Z,100125.06
2022-09-30T08:30:02.294Z,100124.80
2022-09-30T08:45:24.847Z,100141.41
2022-09-30T09:00:28.353Z,100149.73
2022-09-30T09:15:52.798Z,100162.86
2022-09-30T09:30:59.955Z,100163.34
2022-09-30T09:46:38.361Z,100170.95
2022-09-30T10:01:48.106Z,100174.27
2022-09-30T10:17:17.885Z,100170.23
2022-09-30T10:32:22.092Z,100164.39
2022-09-30T10:47:31.419Z,100163.52
2022-09-30T11:02:44.109Z,100153.59
2022-09-30T11:17:57.999Z,100142.98
2022-09-30T11:33:17.379Z,100141.39
2022-09-30T11:48:36.174Z,100133.86
2022-09-30T12:03:46.687Z,100134.02
2022-09-30T12:19:15.769Z,100140.85
2022-09-30T12:34:41.034Z,100133.57
2022-09-30T12:49:47.148Z,100126.20
2022-09-30T13:04:51.105Z,100119.96
2022-09-30T13:19:57.618Z,100125.10
2022-09-30T13:35:00.943Z,100117.29
2022-09-30T13:50:20.871Z,100121.77
2022-09-30T14:05:51.401Z,100124.00
2022-09-30T14:21:28.011Z,100137.08
2022-09-30T14:36:31.910Z,100144.45
2022-09-30T14:51:47.355Z,100147.52
2022-09-30T15:06:52.644Z,100147.37
2022-09-30T15:22:02.855Z,100146.21
2022-09-30T15:37:07.397Z,100153.33
2022-09-30T15:52:36.782Z,100151.27
2022-09-30T16:07:42.647Z,100168.91
2022-09-30T16:22:46.601Z,100181.96
2022-09-30T16:37:51.748Z,100182.83
2022-09-30T16:52:55.037Z,100190.71
2022-09-30T17:08:00.885Z,100205.83
2022-09-30T17:23:07.317Z,100207.27
2022-09-30T17:38:13.238Z,100216.95
2022-09-30T17:53:18.512Z,100216.40
2022-09-30T18:08:22.461Z,100214.83
2022-09-30T18:23:28.124Z,100209.02
2022-09-30T18:38:35.004Z,100224.55
2022-09-30T18:53:39.050Z,100222.02
2022-09-30T19:08:44.208Z,100213.12
2022-09-30T19:23:48.937Z,100207.53
2022-09-30T19:39:09.552Z,100215.15
2022-09-30T19:54:15.205Z,100226.72
2022-09-30T20:09:18.620Z,100229.34
2022-09-30T20:24:22.655Z,100216.44
2022-09-30T20:39:26.261Z,100218.38
2022-09-30T20:54:31.838Z,100221.08
2022-09-30T21:09:35.025Z,100212.20
2022-09-30T21:24:38.572Z,100205.19
2022-09-30T21:39:42.169Z,100209.70
2022-09-30T21:54:45.199Z,100210.02
2022-09-30T22:09:48.211Z,100210.64
2022-09-30T22:24:51.475Z,100215.35
2022-09-30T22:39:59.970Z,100207.72
2022-09-30T22:55:04.350Z,100204.23
2022-09-30T23:10:09.450Z,100205.79
2022-09-30T23:25:12.945Z,100205.82
2022-09-30T23:40:16.256Z,100197.66
2022-09-30T23:55:19.294Z,100195.95
